sensor_id;sensor_type;location;lat;lon;timestamp;P1;durP1;ratioP1;P2;durP2;ratioP2
81036;SDS011;70521;47.468;19.306;2024-01-30T00:01:45;27.05;;;25.50;;
81036;SDS011;70521;47.468;19.306;2024-01-30T00:04:46;24.70;;;23.35;;
81036;SDS011;70521;47.468;19.306;2024-01-30T00:07:47;27.70;;;26.20;;
81036;SDS011;70521;47.468;19.306;2024-01-30T00:10:48;32.55;;;31.05;;
81036;SDS011;70521;47.468;19.306;2024-01-30T00:13:49;26.35;;;24.70;;
81036;SDS011;70521;47.468;19.306;2024-01-30T00:16:50;20.77;;;19.45;;
81036;SDS011;70521;47.468;19.306;2024-01-30T00:19:51;33.78;;;32.25;;
81036;SDS011;70521;47.468;19.306;2024-01-30T00:22:52;21.40;;;20.00;;
81036;SDS011;70521;47.468;19.306;2024-01-30T00:25:53;25.42;;;24.23;;
81036;SDS011;70521;47.468;19.306;2024-01-30T00:28:54;25.77;;;24.27;;
81036;SDS011;70521;47.468;19.306;2024-01-30T00:31:55;23.98;;;22.67;;
81036;SDS011;70521;47.468;19.306;2024-01-30T00:34:56;30.55;;;29.05;;
81036;SDS011;70521;47.468;19.306;2024-01-30T00:37:57;47.95;;;45.97;;
81036;SDS011;70521;47.468;19.306;2024-01-30T00:40:58;46.33;;;44.50;;
81036;SDS011;70521;47.468;19.306;2024-01-30T00:43:59;25.98;;;24.52;;
81036;SDS011;70521;47.468;19.306;2024-01-30T00:47:00;27.80;;;26.20;;
81036;SDS011;70521;47.468;19.306;2024-01-30T00:50:02;26.38;;;24.77;;
81036;SDS011;70521;47.468;19.306;2024-01-30T00:53:04;27.23;;;25.67;;
81036;SDS011;70521;47.468;19.306;2024-01-30T00:56:05;31.23;;;29.48;;
81036;SDS011;70521;47.468;19.306;2024-01-30T00:59:06;26.55;;;25.05;;
81036;SDS011;70521;47.468;19.306;2024-01-30T01:02:07;23.33;;;22.02;;
81036;SDS011;70521;47.468;19.306;2024-01-30T01:05:08;20.80;;;19.35;;
81036;SDS011;70521;47.468;19.306;2024-01-30T01:08:10;21.45;;;20.15;;
81036;SDS011;70521;47.468;19.306;2024-01-30T01:11:11;24.30;;;22.85;;
81036;SDS011;70521;47.468;19.306;2024-01-30T01:14:11;23.17;;;21.77;;
81036;SDS011;70521;47.468;19.306;2024-01-30T01:17:13;27.10;;;25.42;;
81036;SDS011;70521;47.468;19.306;2024-01-30T01:20:15;25.77;;;23.92;;
81036;SDS011;70521;47.468;19.306;2024-01-30T01:23:16;27.00;;;25.58;;
81036;SDS011;70521;47.468;19.306;2024-01-30T01:26:17;28.10;;;26.45;;
81036;SDS011;70521;47.468;19.306;2024-01-30T01:29:18;24.48;;;23.15;;
81036;SDS011;70521;47.468;19.306;2024-01-30T01:32:19;24.85;;;22.98;;
81036;SDS011;70521;47.468;19.306;2024-01-30T01:35:23;31.33;;;29.67;;
81036;SDS011;70521;47.468;19.306;2024-01-30T01:38:28;47.85;;;45.95;;
81036;SDS011;70521;47.468;19.306;2024-01-30T01:41:30;31.67;;;30.05;;
81036;SDS011;70521;47.468;19.306;2024-01-30T01:44:31;36.33;;;34.40;;
81036;SDS011;70521;47.468;19.306;2024-01-30T01:47:32;25.25;;;23.83;;
81036;SDS011;70521;47.468;19.306;2024-01-30T01:50:33;30.23;;;28.48;;
81036;SDS011;70521;47.468;19.306;2024-01-30T01:53:34;24.40;;;22.70;;
81036;SDS011;70521;47.468;19.306;2024-01-30T01:56:35;26.88;;;25.27;;
81036;SDS011;70521;47.468;19.306;2024-01-30T01:59:36;31.67;;;30.08;;
81036;SDS011;70521;47.468;19.306;2024-01-30T02:02:37;33.58;;;31.77;;
81036;SDS011;70521;47.468;19.306;2024-01-30T02:05:40;26.83;;;25.13;;
81036;SDS011;70521;47.468;19.306;2024-01-30T02:08:41;27.05;;;25.50;;
81036;SDS011;70521;47.468;19.306;2024-01-30T02:11:43;28.02;;;26.25;;
81036;SDS011;70521;47.468;19.306;2024-01-30T02:14:45;33.55;;;31.75;;
81036;SDS011;70521;47.468;19.306;2024-01-30T02:17:46;28.83;;;27.13;;
81036;SDS011;70521;47.468;19.306;2024-01-30T02:20:46;27.25;;;25.63;;
81036;SDS011;70521;47.468;19.306;2024-01-30T02:23:48;29.90;;;28.40;;
81036;SDS011;70521;47.468;19.306;2024-01-30T02:26:49;27.80;;;26.25;;
81036;SDS011;70521;47.468;19.306;2024-01-30T02:29:50;31.30;;;29.58;;
81036;SDS011;70521;47.468;19.306;2024-01-30T02:32:52;37.13;;;35.28;;
81036;SDS011;70521;47.468;19.306;2024-01-30T02:35:52;41.22;;;39.28;;
81036;SDS011;70521;47.468;19.306;2024-01-30T02:38:53;26.52;;;24.92;;
81036;SDS011;70521;47.468;19.306;2024-01-30T02:41:55;30.33;;;28.77;;
81036;SDS011;70521;47.468;19.306;2024-01-30T02:44:56;43.28;;;41.17;;
81036;SDS011;70521;47.468;19.306;2024-01-30T02:47:57;30.73;;;28.95;;
81036;SDS011;70521;47.468;19.306;2024-01-30T02:50:58;27.48;;;25.98;;
81036;SDS011;70521;47.468;19.306;2024-01-30T02:53:59;31.15;;;29.42;;
81036;SDS011;70521;47.468;19.306;2024-01-30T02:56:59;30.00;;;28.25;;
81036;SDS011;70521;47.468;19.306;2024-01-30T03:00:00;32.58;;;30.83;;
81036;SDS011;70521;47.468;19.306;2024-01-30T03:03:01;30.38;;;28.52;;
81036;SDS011;70521;47.468;19.306;2024-01-30T03:06:03;30.85;;;29.25;;
81036;SDS011;70521;47.468;19.306;2024-01-30T03:09:03;28.20;;;26.70;;
81036;SDS011;70521;47.468;19.306;2024-01-30T03:12:05;27.73;;;25.95;;
81036;SDS011;70521;47.468;19.306;2024-01-30T03:15:06;42.45;;;40.40;;
81036;SDS011;70521;47.468;19.306;2024-01-30T03:18:07;18.38;;;17.02;;
81036;SDS011;70521;47.468;19.306;2024-01-30T03:21:08;26.63;;;25.08;;
81036;SDS011;70521;47.468;19.306;2024-01-30T03:24:09;22.50;;;21.13;;
81036;SDS011;70521;47.468;19.306;2024-01-30T03:27:11;38.78;;;36.70;;
81036;SDS011;70521;47.468;19.306;2024-01-30T03:30:12;28.25;;;26.23;;
81036;SDS011;70521;47.468;19.306;2024-01-30T03:33:13;26.30;;;24.75;;
81036;SDS011;70521;47.468;19.306;2024-01-30T03:36:15;30.65;;;28.75;;
81036;SDS011;70521;47.468;19.306;2024-01-30T03:39:16;24.15;;;22.80;;
81036;SDS011;70521;47.468;19.306;2024-01-30T03:42:17;26.55;;;24.85;;
81036;SDS011;70521;47.468;19.306;2024-01-30T03:45:18;29.13;;;27.42;;
81036;SDS011;70521;47.468;19.306;2024-01-30T03:48:20;26.80;;;25.10;;
81036;SDS011;70521;47.468;19.306;2024-01-30T03:51:21;39.75;;;37.92;;
81036;SDS011;70521;47.468;19.306;2024-01-30T03:54:22;26.13;;;24.52;;
81036;SDS011;70521;47.468;19.306;2024-01-30T03:57:23;33.63;;;31.83;;
81036;SDS011;70521;47.468;19.306;2024-01-30T04:00:24;31.45;;;29.52;;
81036;SDS011;70521;47.468;19.306;2024-01-30T04:03:25;32.08;;;30.42;;
81036;SDS011;70521;47.468;19.306;2024-01-30T04:06:26;26.33;;;24.65;;
81036;SDS011;70521;47.468;19.306;2024-01-30T04:09:27;32.05;;;29.92;;
81036;SDS011;70521;47.468;19.306;2024-01-30T04:12:29;31.15;;;29.40;;
81036;SDS011;70521;47.468;19.306;2024-01-30T04:15:30;31.60;;;29.85;;
81036;SDS011;70521;47.468;19.306;2024-01-30T04:18:30;27.73;;;26.20;;
81036;SDS011;70521;47.468;19.306;2024-01-30T04:21:32;42.88;;;40.53;;
81036;SDS011;70521;47.468;19.306;2024-01-30T04:24:33;29.00;;;27.20;;
81036;SDS011;70521;47.468;19.306;2024-01-30T04:27:34;24.38;;;22.65;;
81036;SDS011;70521;47.468;19.306;2024-01-30T04:30:35;34.70;;;32.80;;
81036;SDS011;70521;47.468;19.306;2024-01-30T04:33:36;34.50;;;32.40;;
81036;SDS011;70521;47.468;19.306;2024-01-30T04:36:37;38.97;;;37.13;;
81036;SDS011;70521;47.468;19.306;2024-01-30T04:39:38;32.00;;;30.33;;
81036;SDS011;70521;47.468;19.306;2024-01-30T04:42:39;35.30;;;33.47;;
81036;SDS011;70521;47.468;19.306;2024-01-30T04:45:40;30.48;;;28.95;;
81036;SDS011;70521;47.468;19.306;2024-01-30T04:48:41;34.72;;;32.92;;
81036;SDS011;70521;47.468;19.306;2024-01-30T04:51:41;29.25;;;27.60;;
81036;SDS011;70521;47.468;19.306;2024-01-30T04:54:42;38.33;;;36.22;;
81036;SDS011;70521;47.468;19.306;2024-01-30T04:57:43;32.47;;;30.67;;
81036;SDS011;70521;47.468;19.306;2024-01-30T05:00:50;26.48;;;24.73;;
81036;SDS011;70521;47.468;19.306;2024-01-30T05:03:52;33.00;;;31.30;;
81036;SDS011;70521;47.468;19.306;2024-01-30T05:06:58;41.13;;;38.90;;
81036;SDS011;70521;47.468;19.306;2024-01-30T05:09:59;23.15;;;21.70;;
81036;SDS011;70521;47.468;19.306;2024-01-30T05:13:00;29.02;;;26.90;;
81036;SDS011;70521;47.468;19.306;2024-01-30T05:16:02;33.10;;;31.20;;
81036;SDS011;70521;47.468;19.306;2024-01-30T05:19:04;35.83;;;34.25;;
81036;SDS011;70521;47.468;19.306;2024-01-30T05:22:04;38.33;;;36.35;;
81036;SDS011;70521;47.468;19.306;2024-01-30T05:25:06;31.67;;;30.02;;
81036;SDS011;70521;47.468;19.306;2024-01-30T05:28:07;39.75;;;38.13;;
81036;SDS011;70521;47.468;19.306;2024-01-30T05:31:07;35.28;;;33.35;;
81036;SDS011;70521;47.468;19.306;2024-01-30T05:34:08;34.65;;;32.75;;
81036;SDS011;70521;47.468;19.306;2024-01-30T05:37:10;27.83;;;26.23;;
81036;SDS011;70521;47.468;19.306;2024-01-30T05:40:14;29.65;;;28.00;;
81036;SDS011;70521;47.468;19.306;2024-01-30T05:43:15;30.25;;;28.55;;
81036;SDS011;70521;47.468;19.306;2024-01-30T05:46:16;28.83;;;27.10;;
81036;SDS011;70521;47.468;19.306;2024-01-30T05:49:17;32.28;;;30.55;;
81036;SDS011;70521;47.468;19.306;2024-01-30T05:52:18;30.13;;;28.30;;
81036;SDS011;70521;47.468;19.306;2024-01-30T05:55:19;41.20;;;39.15;;
81036;SDS011;70521;47.468;19.306;2024-01-30T05:58:20;32.67;;;30.63;;
81036;SDS011;70521;47.468;19.306;2024-01-30T06:01:22;30.42;;;28.60;;
81036;SDS011;70521;47.468;19.306;2024-01-30T06:04:23;26.60;;;24.73;;
81036;SDS011;70521;47.468;19.306;2024-01-30T06:07:24;35.50;;;33.55;;
81036;SDS011;70521;47.468;19.306;2024-01-30T06:10:25;34.72;;;32.30;;
81036;SDS011;70521;47.468;19.306;2024-01-30T06:13:26;30.42;;;28.23;;
81036;SDS011;70521;47.468;19.306;2024-01-30T06:16:27;33.22;;;31.05;;
81036;SDS011;70521;47.468;19.306;2024-01-30T06:19:30;32.58;;;30.42;;
81036;SDS011;70521;47.468;19.306;2024-01-30T06:22:31;33.80;;;31.52;;
81036;SDS011;70521;47.468;19.306;2024-01-30T06:25:32;33.47;;;31.58;;
81036;SDS011;70521;47.468;19.306;2024-01-30T06:28:32;45.83;;;43.45;;
81036;SDS011;70521;47.468;19.306;2024-01-30T06:31:39;55.53;;;52.47;;
81036;SDS011;70521;47.468;19.306;2024-01-30T06:34:40;37.35;;;35.10;;
81036;SDS011;70521;47.468;19.306;2024-01-30T06:37:41;40.50;;;38.05;;
81036;SDS011;70521;47.468;19.306;2024-01-30T06:40:42;28.42;;;26.45;;
81036;SDS011;70521;47.468;19.306;2024-01-30T06:43:43;28.00;;;25.80;;
81036;SDS011;70521;47.468;19.306;2024-01-30T06:46:45;49.17;;;46.33;;
81036;SDS011;70521;47.468;19.306;2024-01-30T06:49:46;40.70;;;38.53;;
81036;SDS011;70521;47.468;19.306;2024-01-30T06:52:47;31.85;;;29.52;;
81036;SDS011;70521;47.468;19.306;2024-01-30T06:55:48;34.47;;;32.10;;
81036;SDS011;70521;47.468;19.306;2024-01-30T06:58:49;47.58;;;44.42;;
81036;SDS011;70521;47.468;19.306;2024-01-30T07:01:50;39.00;;;36.53;;
81036;SDS011;70521;47.468;19.306;2024-01-30T07:04:52;38.13;;;35.70;;
81036;SDS011;70521;47.468;19.306;2024-01-30T07:07:52;27.90;;;25.70;;
81036;SDS011;70521;47.468;19.306;2024-01-30T07:10:53;37.78;;;35.13;;
81036;SDS011;70521;47.468;19.306;2024-01-30T07:13:55;28.05;;;26.17;;
81036;SDS011;70521;47.468;19.306;2024-01-30T07:16:56;35.35;;;33.20;;
81036;SDS011;70521;47.468;19.306;2024-01-30T07:19:57;36.97;;;34.95;;
81036;SDS011;70521;47.468;19.306;2024-01-30T07:22:58;28.45;;;26.48;;
81036;SDS011;70521;47.468;19.306;2024-01-30T07:26:45;21.00;;;19.27;;
81036;SDS011;70521;47.468;19.306;2024-01-30T07:30:24;27.67;;;25.95;;
81036;SDS011;70521;47.468;19.306;2024-01-30T07:37:46;19.48;;;17.98;;
81036;SDS011;70521;47.468;19.306;2024-01-30T07:40:47;17.95;;;16.70;;
81036;SDS011;70521;47.468;19.306;2024-01-30T07:43:48;17.25;;;15.52;;
81036;SDS011;70521;47.468;19.306;2024-01-30T07:46:57;17.83;;;16.02;;
81036;SDS011;70521;47.468;19.306;2024-01-30T08:03:47;14.00;;;12.68;;
81036;SDS011;70521;47.468;19.306;2024-01-30T08:06:48;15.77;;;14.38;;
81036;SDS011;70521;47.468;19.306;2024-01-30T08:09:49;16.52;;;15.02;;
81036;SDS011;70521;47.468;19.306;2024-01-30T08:12:50;16.20;;;14.63;;
81036;SDS011;70521;47.468;19.306;2024-01-30T08:15:50;15.38;;;13.93;;
81036;SDS011;70521;47.468;19.306;2024-01-30T08:18:52;15.77;;;14.20;;
81036;SDS011;70521;47.468;19.306;2024-01-30T08:21:54;19.05;;;17.33;;
81036;SDS011;70521;47.468;19.306;2024-01-30T08:24:56;18.15;;;16.50;;
81036;SDS011;70521;47.468;19.306;2024-01-30T08:27:57;17.58;;;15.93;;
81036;SDS011;70521;47.468;19.306;2024-01-30T08:30:58;15.98;;;14.35;;
81036;SDS011;70521;47.468;19.306;2024-01-30T08:33:59;17.80;;;15.20;;
81036;SDS011;70521;47.468;19.306;2024-01-30T08:37:00;16.30;;;14.65;;
81036;SDS011;70521;47.468;19.306;2024-01-30T08:40:01;17.17;;;15.48;;
81036;SDS011;70521;47.468;19.306;2024-01-30T08:43:04;19.10;;;17.15;;
81036;SDS011;70521;47.468;19.306;2024-01-30T08:46:05;17.67;;;15.85;;
81036;SDS011;70521;47.468;19.306;2024-01-30T08:49:06;15.90;;;14.30;;
81036;SDS011;70521;47.468;19.306;2024-01-30T08:52:06;17.20;;;15.32;;
81036;SDS011;70521;47.468;19.306;2024-01-30T08:55:07;17.92;;;16.17;;
81036;SDS011;70521;47.468;19.306;2024-01-30T08:58:08;18.25;;;16.20;;
81036;SDS011;70521;47.468;19.306;2024-01-30T09:01:09;19.08;;;17.20;;
81036;SDS011;70521;47.468;19.306;2024-01-30T09:04:10;19.85;;;17.85;;
81036;SDS011;70521;47.468;19.306;2024-01-30T09:07:12;16.98;;;15.00;;
81036;SDS011;70521;47.468;19.306;2024-01-30T09:10:14;17.15;;;15.35;;
81036;SDS011;70521;47.468;19.306;2024-01-30T09:13:15;16.35;;;14.57;;
81036;SDS011;70521;47.468;19.306;2024-01-30T09:16:18;16.52;;;12.93;;
81036;SDS011;70521;47.468;19.306;2024-01-30T09:19:19;16.02;;;14.52;;
81036;SDS011;70521;47.468;19.306;2024-01-30T09:22:20;14.90;;;13.52;;
81036;SDS011;70521;47.468;19.306;2024-01-30T09:25:21;14.48;;;13.07;;
81036;SDS011;70521;47.468;19.306;2024-01-30T09:28:22;14.95;;;12.57;;
81036;SDS011;70521;47.468;19.306;2024-01-30T09:31:23;19.80;;;17.95;;
81036;SDS011;70521;47.468;19.306;2024-01-30T09:34:24;18.40;;;16.70;;
81036;SDS011;70521;47.468;19.306;2024-01-30T09:37:25;18.65;;;16.95;;
81036;SDS011;70521;47.468;19.306;2024-01-30T09:40:26;15.10;;;13.63;;
81036;SDS011;70521;47.468;19.306;2024-01-30T09:43:28;16.00;;;14.48;;
81036;SDS011;70521;47.468;19.306;2024-01-30T09:46:35;12.43;;;11.43;;
81036;SDS011;70521;47.468;19.306;2024-01-30T09:49:37;15.82;;;14.15;;
81036;SDS011;70521;47.468;19.306;2024-01-30T09:52:39;13.85;;;12.55;;
81036;SDS011;70521;47.468;19.306;2024-01-30T09:55:42;14.60;;;13.23;;
81036;SDS011;70521;47.468;19.306;2024-01-30T09:58:43;14.85;;;13.63;;
81036;SDS011;70521;47.468;19.306;2024-01-30T10:01:47;15.10;;;13.60;;
81036;SDS011;70521;47.468;19.306;2024-01-30T10:04:50;15.32;;;13.50;;
81036;SDS011;70521;47.468;19.306;2024-01-30T10:07:54;15.32;;;13.85;;
81036;SDS011;70521;47.468;19.306;2024-01-30T10:10:58;15.90;;;14.23;;
81036;SDS011;70521;47.468;19.306;2024-01-30T10:14:00;16.98;;;15.23;;
81036;SDS011;70521;47.468;19.306;2024-01-30T10:17:01;20.15;;;18.25;;
81036;SDS011;70521;47.468;19.306;2024-01-30T10:20:04;20.67;;;18.50;;
81036;SDS011;70521;47.468;19.306;2024-01-30T10:23:06;22.38;;;19.25;;
81036;SDS011;70521;47.468;19.306;2024-01-30T10:26:08;22.25;;;20.08;;
81036;SDS011;70521;47.468;19.306;2024-01-30T10:29:09;24.52;;;22.25;;
81036;SDS011;70521;47.468;19.306;2024-01-30T10:32:10;28.75;;;26.50;;
81036;SDS011;70521;47.468;19.306;2024-01-30T10:35:11;23.25;;;21.15;;
81036;SDS011;70521;47.468;19.306;2024-01-30T10:38:12;23.10;;;20.92;;
81036;SDS011;70521;47.468;19.306;2024-01-30T10:41:16;22.48;;;20.67;;
81036;SDS011;70521;47.468;19.306;2024-01-30T10:44:19;27.75;;;25.05;;
81036;SDS011;70521;47.468;19.306;2024-01-30T10:47:26;23.15;;;21.02;;
81036;SDS011;70521;47.468;19.306;2024-01-30T10:50:27;23.42;;;21.40;;
81036;SDS011;70521;47.468;19.306;2024-01-30T10:53:29;32.65;;;30.02;;
81036;SDS011;70521;47.468;19.306;2024-01-30T10:56:32;24.60;;;22.58;;
81036;SDS011;70521;47.468;19.306;2024-01-30T10:59:34;28.63;;;26.15;;
81036;SDS011;70521;47.468;19.306;2024-01-30T11:02:36;26.00;;;23.73;;
81036;SDS011;70521;47.468;19.306;2024-01-30T11:05:40;26.50;;;24.52;;
81036;SDS011;70521;47.468;19.306;2024-01-30T11:08:41;26.42;;;24.15;;
81036;SDS011;70521;47.468;19.306;2024-01-30T11:11:51;29.23;;;26.85;;
81036;SDS011;70521;47.468;19.306;2024-01-30T11:15:05;28.35;;;25.92;;
81036;SDS011;70521;47.468;19.306;2024-01-30T11:18:07;18.45;;;16.83;;
81036;SDS011;70521;47.468;19.306;2024-01-30T11:21:08;21.30;;;19.23;;
81036;SDS011;70521;47.468;19.306;2024-01-30T11:24:09;21.38;;;19.45;;
81036;SDS011;70521;47.468;19.306;2024-01-30T11:27:10;23.45;;;21.08;;
81036;SDS011;70521;47.468;19.306;2024-01-30T11:30:20;19.33;;;17.52;;
81036;SDS011;70521;47.468;19.306;2024-01-30T11:33:28;28.15;;;25.98;;
81036;SDS011;70521;47.468;19.306;2024-01-30T11:36:30;22.20;;;20.13;;
81036;SDS011;70521;47.468;19.306;2024-01-30T11:39:34;23.95;;;22.10;;
81036;SDS011;70521;47.468;19.306;2024-01-30T11:42:36;23.30;;;21.30;;
81036;SDS011;70521;47.468;19.306;2024-01-30T11:45:39;19.92;;;18.45;;
81036;SDS011;70521;47.468;19.306;2024-01-30T11:48:41;20.33;;;19.30;;
81036;SDS011;70521;47.468;19.306;2024-01-30T11:51:42;22.88;;;20.88;;
81036;SDS011;70521;47.468;19.306;2024-01-30T11:54:43;23.00;;;21.13;;
81036;SDS011;70521;47.468;19.306;2024-01-30T11:57:44;18.25;;;16.95;;
81036;SDS011;70521;47.468;19.306;2024-01-30T12:00:55;24.40;;;22.33;;
81036;SDS011;70521;47.468;19.306;2024-01-30T12:03:56;32.72;;;29.90;;
81036;SDS011;70521;47.468;19.306;2024-01-30T12:06:57;26.40;;;24.13;;
81036;SDS011;70521;47.468;19.306;2024-01-30T12:09:59;26.77;;;24.55;;
81036;SDS011;70521;47.468;19.306;2024-01-30T12:13:00;16.30;;;15.02;;
81036;SDS011;70521;47.468;19.306;2024-01-30T12:16:02;30.90;;;28.52;;
81036;SDS011;70521;47.468;19.306;2024-01-30T12:19:03;23.48;;;21.58;;
81036;SDS011;70521;47.468;19.306;2024-01-30T12:22:04;30.83;;;28.52;;
81036;SDS011;70521;47.468;19.306;2024-01-30T12:25:09;25.33;;;22.95;;
81036;SDS011;70521;47.468;19.306;2024-01-30T12:28:10;31.48;;;29.00;;
81036;SDS011;70521;47.468;19.306;2024-01-30T12:31:12;26.45;;;24.42;;
81036;SDS011;70521;47.468;19.306;2024-01-30T12:34:13;34.40;;;31.83;;
81036;SDS011;70521;47.468;19.306;2024-01-30T12:37:15;30.35;;;28.10;;
81036;SDS011;70521;47.468;19.306;2024-01-30T12:40:20;28.60;;;26.38;;
81036;SDS011;70521;47.468;19.306;2024-01-30T12:43:21;27.08;;;24.63;;
81036;SDS011;70521;47.468;19.306;2024-01-30T12:46:27;18.98;;;17.75;;
81036;SDS011;70521;47.468;19.306;2024-01-30T12:49:29;20.25;;;18.75;;
81036;SDS011;70521;47.468;19.306;2024-01-30T12:52:30;13.60;;;12.25;;
81036;SDS011;70521;47.468;19.306;2024-01-30T12:55:31;22.83;;;21.02;;
81036;SDS011;70521;47.468;19.306;2024-01-30T12:58:32;19.58;;;17.80;;
81036;SDS011;70521;47.468;19.306;2024-01-30T13:01:33;21.13;;;19.30;;
81036;SDS011;70521;47.468;19.306;2024-01-30T13:04:34;19.85;;;18.27;;
81036;SDS011;70521;47.468;19.306;2024-01-30T13:07:35;25.92;;;23.77;;
81036;SDS011;70521;47.468;19.306;2024-01-30T13:10:36;21.73;;;19.83;;
81036;SDS011;70521;47.468;19.306;2024-01-30T13:13:37;35.80;;;33.50;;
81036;SDS011;70521;47.468;19.306;2024-01-30T13:16:38;33.72;;;31.38;;
81036;SDS011;70521;47.468;19.306;2024-01-30T13:19:39;25.45;;;23.33;;
81036;SDS011;70521;47.468;19.306;2024-01-30T13:22:40;22.27;;;20.40;;
81036;SDS011;70521;47.468;19.306;2024-01-30T13:25:41;26.20;;;24.17;;
81036;SDS011;70521;47.468;19.306;2024-01-30T13:28:42;23.50;;;21.70;;
81036;SDS011;70521;47.468;19.306;2024-01-30T13:31:43;24.73;;;23.00;;
81036;SDS011;70521;47.468;19.306;2024-01-30T13:34:47;25.95;;;24.02;;
81036;SDS011;70521;47.468;19.306;2024-01-30T13:37:48;24.52;;;22.48;;
81036;SDS011;70521;47.468;19.306;2024-01-30T13:40:49;19.70;;;17.85;;
81036;SDS011;70521;47.468;19.306;2024-01-30T13:43:50;22.85;;;20.73;;
81036;SDS011;70521;47.468;19.306;2024-01-30T13:46:51;20.23;;;18.42;;
81036;SDS011;70521;47.468;19.306;2024-01-30T13:49:52;21.40;;;19.70;;
81036;SDS011;70521;47.468;19.306;2024-01-30T13:52:53;19.23;;;17.52;;
81036;SDS011;70521;47.468;19.306;2024-01-30T13:55:54;18.33;;;16.67;;
81036;SDS011;70521;47.468;19.306;2024-01-30T13:58:56;22.33;;;20.70;;
81036;SDS011;70521;47.468;19.306;2024-01-30T14:01:57;20.42;;;18.65;;
81036;SDS011;70521;47.468;19.306;2024-01-30T14:04:58;24.88;;;22.85;;
81036;SDS011;70521;47.468;19.306;2024-01-30T14:07:59;17.80;;;16.42;;
81036;SDS011;70521;47.468;19.306;2024-01-30T14:11:00;19.23;;;17.75;;
81036;SDS011;70521;47.468;19.306;2024-01-30T14:14:01;16.23;;;14.98;;
81036;SDS011;70521;47.468;19.306;2024-01-30T14:17:02;17.70;;;16.50;;
81036;SDS011;70521;47.468;19.306;2024-01-30T14:20:04;12.85;;;12.00;;
81036;SDS011;70521;47.468;19.306;2024-01-30T14:23:05;17.95;;;16.85;;
81036;SDS011;70521;47.468;19.306;2024-01-30T14:26:07;20.27;;;18.85;;
81036;SDS011;70521;47.468;19.306;2024-01-30T14:29:08;23.23;;;21.50;;
81036;SDS011;70521;47.468;19.306;2024-01-30T14:32:09;19.17;;;17.73;;
81036;SDS011;70521;47.468;19.306;2024-01-30T14:35:11;18.13;;;16.63;;
81036;SDS011;70521;47.468;19.306;2024-01-30T14:38:11;15.00;;;14.00;;
81036;SDS011;70521;47.468;19.306;2024-01-30T14:41:12;15.15;;;14.13;;
81036;SDS011;70521;47.468;19.306;2024-01-30T14:44:13;14.15;;;12.85;;
81036;SDS011;70521;47.468;19.306;2024-01-30T14:47:15;18.65;;;17.23;;
81036;SDS011;70521;47.468;19.306;2024-01-30T14:50:16;21.33;;;19.70;;
81036;SDS011;70521;47.468;19.306;2024-01-30T14:53:18;19.13;;;17.67;;
81036;SDS011;70521;47.468;19.306;2024-01-30T14:56:19;22.52;;;20.75;;
81036;SDS011;70521;47.468;19.306;2024-01-30T14:59:21;19.80;;;18.02;;
81036;SDS011;70521;47.468;19.306;2024-01-30T15:02:22;24.52;;;22.73;;
81036;SDS011;70521;47.468;19.306;2024-01-30T15:05:23;22.33;;;20.77;;
81036;SDS011;70521;47.468;19.306;2024-01-30T15:08:24;20.02;;;18.35;;
81036;SDS011;70521;47.468;19.306;2024-01-30T15:11:25;24.48;;;22.20;;
81036;SDS011;70521;47.468;19.306;2024-01-30T15:14:26;22.42;;;20.58;;
81036;SDS011;70521;47.468;19.306;2024-01-30T15:17:27;37.60;;;34.60;;
81036;SDS011;70521;47.468;19.306;2024-01-30T15:20:28;33.33;;;30.75;;
81036;SDS011;70521;47.468;19.306;2024-01-30T15:23:29;24.35;;;21.85;;
81036;SDS011;70521;47.468;19.306;2024-01-30T15:26:30;26.15;;;23.98;;
81036;SDS011;70521;47.468;19.306;2024-01-30T15:29:31;28.08;;;25.58;;
81036;SDS011;70521;47.468;19.306;2024-01-30T15:32:32;28.25;;;25.98;;
81036;SDS011;70521;47.468;19.306;2024-01-30T15:35:33;23.77;;;21.45;;
81036;SDS011;70521;47.468;19.306;2024-01-30T15:38:34;35.17;;;32.35;;
81036;SDS011;70521;47.468;19.306;2024-01-30T15:41:35;37.00;;;34.05;;
81036;SDS011;70521;47.468;19.306;2024-01-30T15:44:37;28.35;;;25.70;;
81036;SDS011;70521;47.468;19.306;2024-01-30T15:47:38;33.65;;;30.92;;
81036;SDS011;70521;47.468;19.306;2024-01-30T15:50:39;54.17;;;51.03;;
81036;SDS011;70521;47.468;19.306;2024-01-30T15:53:40;35.20;;;32.45;;
81036;SDS011;70521;47.468;19.306;2024-01-30T15:56:41;34.95;;;32.53;;
81036;SDS011;70521;47.468;19.306;2024-01-30T15:59:42;31.63;;;29.08;;
81036;SDS011;70521;47.468;19.306;2024-01-30T16:02:43;30.30;;;27.50;;
81036;SDS011;70521;47.468;19.306;2024-01-30T16:05:44;34.95;;;31.92;;
81036;SDS011;70521;47.468;19.306;2024-01-30T16:08:45;32.83;;;29.92;;
81036;SDS011;70521;47.468;19.306;2024-01-30T16:11:45;35.78;;;33.00;;
81036;SDS011;70521;47.468;19.306;2024-01-30T16:14:46;33.28;;;30.15;;
81036;SDS011;70521;47.468;19.306;2024-01-30T16:17:47;37.78;;;34.47;;
81036;SDS011;70521;47.468;19.306;2024-01-30T16:20:49;36.10;;;32.78;;
81036;SDS011;70521;47.468;19.306;2024-01-30T16:23:50;54.40;;;50.85;;
81036;SDS011;70521;47.468;19.306;2024-01-30T16:26:51;40.53;;;37.10;;
81036;SDS011;70521;47.468;19.306;2024-01-30T16:29:51;39.65;;;36.55;;
81036;SDS011;70521;47.468;19.306;2024-01-30T16:32:52;43.95;;;40.28;;
81036;SDS011;70521;47.468;19.306;2024-01-30T16:35:54;38.03;;;34.72;;
81036;SDS011;70521;47.468;19.306;2024-01-30T16:38:55;47.13;;;43.50;;
81036;SDS011;70521;47.468;19.306;2024-01-30T16:41:58;37.60;;;34.10;;
81036;SDS011;70521;47.468;19.306;2024-01-30T16:44:59;34.55;;;31.05;;
81036;SDS011;70521;47.468;19.306;2024-01-30T16:48:00;42.15;;;38.50;;
81036;SDS011;70521;47.468;19.306;2024-01-30T16:51:01;45.28;;;41.78;;
81036;SDS011;70521;47.468;19.306;2024-01-30T16:54:02;35.17;;;31.77;;
81036;SDS011;70521;47.468;19.306;2024-01-30T16:57:03;34.78;;;31.33;;
81036;SDS011;70521;47.468;19.306;2024-01-30T17:00:04;34.17;;;31.10;;
81036;SDS011;70521;47.468;19.306;2024-01-30T17:03:06;32.30;;;29.55;;
81036;SDS011;70521;47.468;19.306;2024-01-30T17:06:11;38.00;;;34.75;;
81036;SDS011;70521;47.468;19.306;2024-01-30T17:09:12;39.10;;;36.03;;
81036;SDS011;70521;47.468;19.306;2024-01-30T17:12:15;34.83;;;31.52;;
81036;SDS011;70521;47.468;19.306;2024-01-30T17:15:16;36.85;;;33.95;;
81036;SDS011;70521;47.468;19.306;2024-01-30T17:18:17;46.05;;;42.33;;
81036;SDS011;70521;47.468;19.306;2024-01-30T17:21:20;45.08;;;40.80;;
81036;SDS011;70521;47.468;19.306;2024-01-30T17:24:21;49.50;;;45.42;;
81036;SDS011;70521;47.468;19.306;2024-01-30T17:27:23;37.38;;;34.15;;
81036;SDS011;70521;47.468;19.306;2024-01-30T17:30:24;39.90;;;36.08;;
81036;SDS011;70521;47.468;19.306;2024-01-30T17:33:25;34.10;;;30.85;;
81036;SDS011;70521;47.468;19.306;2024-01-30T17:36:26;31.23;;;27.88;;
81036;SDS011;70521;47.468;19.306;2024-01-30T17:39:27;41.15;;;37.85;;
81036;SDS011;70521;47.468;19.306;2024-01-30T17:42:28;38.00;;;34.80;;
81036;SDS011;70521;47.468;19.306;2024-01-30T17:45:29;34.15;;;31.27;;